sensor_id;sensor_type;location;lat;lon;timestamp;P1;durP1;ratioP1;P2;durP2;ratioP2
2564;SDS011;1292;48.020;7.822;2023-03-13T06:45:31;1.17;;;0.80;;
2564;SDS011;1292;48.020;7.822;2023-03-13T06:47:59;1.33;;;0.60;;
2564;SDS011;1292;48.020;7.822;2023-03-13T06:50:27;2.50;;;1.00;;
2564;SDS011;1292;48.020;7.822;2023-03-13T06:52:54;2.63;;;0.77;;
2564;SDS011;1292;48.020;7.822;2023-03-13T06:55:22;1.30;;;0.77;;
2564;SDS011;1292;48.020;7.822;2023-03-13T06:57:49;1.57;;;1.27;;
2564;SDS011;1292;48.020;7.822;2023-03-13T07:00:16;2.20;;;0.73;;
2564;SDS011;1292;48.020;7.822;2023-03-13T07:02:45;2.43;;;1.20;;
2564;SDS011;1292;48.020;7.822;2023-03-13T07:05:12;3.10;;;1.17;;
2564;SDS011;1292;48.020;7.822;2023-03-13T07:07:39;1.10;;;1.00;;
2564;SDS011;1292;48.020;7.822;2023-03-13T07:10:06;1.17;;;1.00;;
2564;SDS011;1292;48.020;7.822;2023-03-13T07:12:34;1.03;;;0.97;;
2564;SDS011;1292;48.020;7.822;2023-03-13T07:15:02;1.10;;;1.00;;
2564;SDS011;1292;48.020;7.822;2023-03-13T07:17:29;1.10;;;1.00;;
2564;SDS011;1292;48.020;7.822;2023-03-13T07:19:57;0.60;;;0.50;;
2564;SDS011;1292;48.020;7.822;2023-03-13T07:22:24;0.70;;;0.70;;
2564;SDS011;1292;48.020;7.822;2023-03-13T07:24:51;2.60;;;0.93;;
2564;SDS011;1292;48.020;7.822;2023-03-13T07:27:17;1.30;;;1.13;;
2564;SDS011;1292;48.020;7.822;2023-03-13T07:29:46;1.33;;;0.63;;
2564;SDS011;1292;48.020;7.822;2023-03-13T07:32:13;1.10;;;1.00;;
2564;SDS011;1292;48.020;7.822;2023-03-13T07:34:40;0.73;;;0.73;;
2564;SDS011;1292;48.020;7.822;2023-03-13T07:37:09;1.60;;;0.83;;
2564;SDS011;1292;48.020;7.822;2023-03-13T07:39:36;5.43;;;0.90;;
2564;SDS011;1292;48.020;7.822;2023-03-13T07:42:03;3.90;;;0.90;;
2564;SDS011;1292;48.020;7.822;2023-03-13T07:44:30;1.03;;;0.83;;
2564;SDS011;1292;48.020;7.822;2023-03-13T07:46:58;3.67;;;0.97;;
2564;SDS011;1292;48.020;7.822;2023-03-13T07:49:25;1.53;;;1.07;;
2564;SDS011;1292;48.020;7.822;2023-03-13T07:51:52;0.90;;;0.70;;
2564;SDS011;1292;48.020;7.822;2023-03-13T07:54:20;0.83;;;0.63;;
2564;SDS011;1292;48.020;7.822;2023-03-13T07:56:47;0.67;;;0.67;;
2564;SDS011;1292;48.020;7.822;2023-03-13T07:59:15;1.90;;;0.77;;
2564;SDS011;1292;48.020;7.822;2023-03-13T08:01:41;1.10;;;0.80;;
2564;SDS011;1292;48.020;7.822;2023-03-13T08:04:08;0.70;;;0.70;;
2564;SDS011;1292;48.020;7.822;2023-03-13T08:06:38;0.83;;;0.70;;
2564;SDS011;1292;48.020;7.822;2023-03-13T08:09:06;4.63;;;1.03;;
2564;SDS011;1292;48.020;7.822;2023-03-13T08:11:34;0.90;;;0.90;;
2564;SDS011;1292;48.020;7.822;2023-03-13T08:14:04;0.70;;;0.70;;
2564;SDS011;1292;48.020;7.822;2023-03-13T08:16:31;0.97;;;0.63;;
2564;SDS011;1292;48.020;7.822;2023-03-13T08:19:00;1.13;;;0.80;;
2564;SDS011;1292;48.020;7.822;2023-03-13T08:21:30;2.00;;;0.70;;
2564;SDS011;1292;48.020;7.822;2023-03-13T08:23:59;1.87;;;0.90;;
2564;SDS011;1292;48.020;7.822;2023-03-13T08:26:30;1.70;;;0.80;;
2564;SDS011;1292;48.020;7.822;2023-03-13T08:28:59;0.60;;;0.60;;
2564;SDS011;1292;48.020;7.822;2023-03-13T08:31:28;5.10;;;1.40;;
2564;SDS011;1292;48.020;7.822;2023-03-13T08:33:56;1.87;;;0.90;;
2564;SDS011;1292;48.020;7.822;2023-03-13T08:36:24;1.23;;;0.83;;
2564;SDS011;1292;48.020;7.822;2023-03-13T08:38:52;0.90;;;0.90;;
2564;SDS011;1292;48.020;7.822;2023-03-13T08:41:20;0.97;;;0.70;;
2564;SDS011;1292;48.020;7.822;2023-03-13T08:43:50;2.13;;;0.70;;
2564;SDS011;1292;48.020;7.822;2023-03-13T08:46:19;1.33;;;0.80;;
2564;SDS011;1292;48.020;7.822;2023-03-13T08:48:47;0.83;;;0.67;;
2564;SDS011;1292;48.020;7.822;2023-03-13T08:51:15;0.83;;;0.83;;
2564;SDS011;1292;48.020;7.822;2023-03-13T08:53:43;0.70;;;0.70;;
2564;SDS011;1292;48.020;7.822;2023-03-13T08:56:11;0.87;;;0.67;;
2564;SDS011;1292;48.020;7.822;2023-03-13T08:58:39;1.23;;;0.70;;
2564;SDS011;1292;48.020;7.822;2023-03-13T09:01:07;1.10;;;1.00;;
2564;SDS011;1292;48.020;7.822;2023-03-13T09:03:36;1.07;;;0.90;;
2564;SDS011;1292;48.020;7.822;2023-03-13T09:06:04;1.13;;;0.80;;
2564;SDS011;1292;48.020;7.822;2023-03-13T09:08:31;0.83;;;0.63;;
2564;SDS011;1292;48.020;7.822;2023-03-13T09:10:59;2.30;;;0.83;;
2564;SDS011;1292;48.020;7.822;2023-03-13T09:13:27;0.70;;;0.70;;
2564;SDS011;1292;48.020;7.822;2023-03-13T09:15:56;1.53;;;0.67;;
2564;SDS011;1292;48.020;7.822;2023-03-13T09:18:23;2.10;;;0.77;;
2564;SDS011;1292;48.020;7.822;2023-03-13T09:20:52;2.60;;;0.80;;
2564;SDS011;1292;48.020;7.822;2023-03-13T09:23:19;0.90;;;0.80;;
2564;SDS011;1292;48.020;7.822;2023-03-13T09:25:47;1.10;;;1.00;;
2564;SDS011;1292;48.020;7.822;2023-03-13T09:28:14;0.70;;;0.70;;
2564;SDS011;1292;48.020;7.822;2023-03-13T09:30:41;2.33;;;1.10;;
2564;SDS011;1292;48.020;7.822;2023-03-13T09:33:09;2.03;;;0.73;;
2564;SDS011;1292;48.020;7.822;2023-03-13T09:35:37;1.60;;;0.70;;
2564;SDS011;1292;48.020;7.822;2023-03-13T09:38:05;0.53;;;0.53;;
2564;SDS011;1292;48.020;7.822;2023-03-13T09:40:35;0.60;;;0.60;;
2564;SDS011;1292;48.020;7.822;2023-03-13T09:43:03;0.80;;;0.80;;
2564;SDS011;1292;48.020;7.822;2023-03-13T09:45:31;1.60;;;0.80;;
2564;SDS011;1292;48.020;7.822;2023-03-13T09:48:00;1.10;;;0.80;;
2564;SDS011;1292;48.020;7.822;2023-03-13T09:50:31;1.27;;;0.70;;
2564;SDS011;1292;48.020;7.822;2023-03-13T09:53:01;1.97;;;0.73;;
2564;SDS011;1292;48.020;7.822;2023-03-13T09:55:38;0.77;;;0.60;;
2564;SDS011;1292;48.020;7.822;2023-03-13T09:58:09;1.20;;;0.83;;
2564;SDS011;1292;48.020;7.822;2023-03-13T10:00:41;2.10;;;1.00;;
2564;SDS011;1292;48.020;7.822;2023-03-13T10:03:13;3.00;;;1.20;;
2564;SDS011;1292;48.020;7.822;2023-03-13T10:05:46;2.00;;;0.70;;
2564;SDS011;1292;48.020;7.822;2023-03-13T10:08:17;1.50;;;1.40;;
2564;SDS011;1292;48.020;7.822;2023-03-13T10:10:47;0.83;;;0.70;;
2564;SDS011;1292;48.020;7.822;2023-03-13T10:13:19;1.10;;;1.00;;
2564;SDS011;1292;48.020;7.822;2023-03-13T10:15:51;1.60;;;0.90;;
2564;SDS011;1292;48.020;7.822;2023-03-13T10:18:22;1.00;;;0.90;;
2564;SDS011;1292;48.020;7.822;2023-03-13T10:20:50;0.80;;;0.67;;
2564;SDS011;1292;48.020;7.822;2023-03-13T10:23:21;1.23;;;0.70;;
2564;SDS011;1292;48.020;7.822;2023-03-13T10:25:52;2.80;;;0.90;;
2564;SDS011;1292;48.020;7.822;2023-03-13T10:28:19;0.80;;;0.80;;
2564;SDS011;1292;48.020;7.822;2023-03-13T10:30:47;3.73;;;1.10;;
2564;SDS011;1292;48.020;7.822;2023-03-13T10:33:23;1.43;;;0.70;;
2564;SDS011;1292;48.020;7.822;2023-03-13T10:36:01;0.73;;;0.73;;
2564;SDS011;1292;48.020;7.822;2023-03-13T10:38:33;1.70;;;0.83;;
2564;SDS011;1292;48.020;7.822;2023-03-13T10:41:17;0.80;;;0.80;;
2564;SDS011;1292;48.020;7.822;2023-03-13T10:43:50;0.77;;;0.57;;
2564;SDS011;1292;48.020;7.822;2023-03-13T10:46:26;0.93;;;0.70;;
2564;SDS011;1292;48.020;7.822;2023-03-13T10:48:54;0.60;;;0.57;;
2564;SDS011;1292;48.020;7.822;2023-03-13T10:51:32;1.00;;;0.77;;
2564;SDS011;1292;48.020;7.822;2023-03-13T10:54:09;1.03;;;0.60;;
2564;SDS011;1292;48.020;7.822;2023-03-13T10:56:39;0.80;;;0.60;;
2564;SDS011;1292;48.020;7.822;2023-03-13T10:59:14;6.60;;;0.70;;
2564;SDS011;1292;48.020;7.822;2023-03-13T11:01:45;2.93;;;0.70;;
2564;SDS011;1292;48.020;7.822;2023-03-13T11:04:20;2.67;;;1.00;;
2564;SDS011;1292;48.020;7.822;2023-03-13T11:06:57;1.53;;;0.60;;
2564;SDS011;1292;48.020;7.822;2023-03-13T11:09:29;1.20;;;1.00;;
2564;SDS011;1292;48.020;7.822;2023-03-13T11:12:00;1.10;;;1.00;;
2564;SDS011;1292;48.020;7.822;2023-03-13T11:14:29;1.37;;;0.70;;
2564;SDS011;1292;48.020;7.822;2023-03-13T11:16:58;1.17;;;0.80;;
2564;SDS011;1292;48.020;7.822;2023-03-13T11:19:40;0.93;;;0.63;;
2564;SDS011;1292;48.020;7.822;2023-03-13T11:22:20;0.77;;;0.60;;
2564;SDS011;1292;48.020;7.822;2023-03-13T11:24:58;0.87;;;0.60;;
2564;SDS011;1292;48.020;7.822;2023-03-13T11:27:37;0.70;;;0.70;;
2564;SDS011;1292;48.020;7.822;2023-03-13T11:30:15;1.23;;;0.57;;
2564;SDS011;1292;48.020;7.822;2023-03-13T11:32:50;0.80;;;0.80;;
2564;SDS011;1292;48.020;7.822;2023-03-13T11:35:22;2.30;;;0.87;;
2564;SDS011;1292;48.020;7.822;2023-03-13T11:38:01;1.17;;;0.67;;
2564;SDS011;1292;48.020;7.822;2023-03-13T11:40:34;0.80;;;0.70;;
2564;SDS011;1292;48.020;7.822;2023-03-13T11:43:09;0.60;;;0.60;;
2564;SDS011;1292;48.020;7.822;2023-03-13T11:45:54;0.53;;;0.53;;
2564;SDS011;1292;48.020;7.822;2023-03-13T11:48:36;1.13;;;0.73;;
2564;SDS011;1292;48.020;7.822;2023-03-13T11:51:21;1.43;;;0.57;;
2564;SDS011;1292;48.020;7.822;2023-03-13T11:54:00;0.90;;;0.70;;
2564;SDS011;1292;48.020;7.822;2023-03-13T11:56:39;2.30;;;0.57;;
2564;SDS011;1292;48.020;7.822;2023-03-13T11:59:21;1.10;;;0.70;;
2564;SDS011;1292;48.020;7.822;2023-03-13T12:01:56;0.93;;;0.60;;
2564;SDS011;1292;48.020;7.822;2023-03-13T12:04:28;1.20;;;0.60;;
2564;SDS011;1292;48.020;7.822;2023-03-13T12:07:01;0.53;;;0.50;;
2564;SDS011;1292;48.020;7.822;2023-03-13T12:09:32;0.73;;;0.67;;
2564;SDS011;1292;48.020;7.822;2023-03-13T12:12:08;1.07;;;0.70;;
2564;SDS011;1292;48.020;7.822;2023-03-13T12:14:42;0.80;;;0.60;;
2564;SDS011;1292;48.020;7.822;2023-03-13T12:17:12;2.80;;;0.67;;
2564;SDS011;1292;48.020;7.822;2023-03-13T12:19:48;0.73;;;0.70;;
2564;SDS011;1292;48.020;7.822;2023-03-13T12:22:22;1.00;;;0.70;;
2564;SDS011;1292;48.020;7.822;2023-03-13T12:24:54;0.93;;;0.80;;
2564;SDS011;1292;48.020;7.822;2023-03-13T12:27:27;0.60;;;0.60;;
2564;SDS011;1292;48.020;7.822;2023-03-13T12:29:58;1.43;;;0.73;;
2564;SDS011;1292;48.020;7.822;2023-03-13T12:32:32;1.40;;;0.80;;
2564;SDS011;1292;48.020;7.822;2023-03-13T12:35:06;0.90;;;0.67;;
2564;SDS011;1292;48.020;7.822;2023-03-13T12:37:41;1.03;;;0.93;;
2564;SDS011;1292;48.020;7.822;2023-03-13T12:40:15;1.00;;;0.80;;
2564;SDS011;1292;48.020;7.822;2023-03-13T12:42:53;1.27;;;0.80;;
2564;SDS011;1292;48.020;7.822;2023-03-13T12:45:23;0.70;;;0.70;;
2564;SDS011;1292;48.020;7.822;2023-03-13T12:47:59;0.90;;;0.77;;
2564;SDS011;1292;48.020;7.822;2023-03-13T12:51:03;0.93;;;0.80;;
2564;SDS011;1292;48.020;7.822;2023-03-13T12:53:47;0.77;;;0.77;;
2564;SDS011;1292;48.020;7.822;2023-03-13T12:56:35;1.10;;;0.80;;
2564;SDS011;1292;48.020;7.822;2023-03-13T12:59:12;0.80;;;0.80;;
2564;SDS011;1292;48.020;7.822;2023-03-13T13:01:43;1.30;;;0.80;;
2564;SDS011;1292;48.020;7.822;2023-03-13T13:04:13;1.47;;;0.60;;
2564;SDS011;1292;48.020;7.822;2023-03-13T13:06:49;1.83;;;1.10;;
2564;SDS011;1292;48.020;7.822;2023-03-13T13:09:21;2.77;;;0.80;;
2564;SDS011;1292;48.020;7.822;2023-03-13T13:11:49;0.80;;;0.77;;
2564;SDS011;1292;48.020;7.822;2023-03-13T13:17:30;0.97;;;0.90;;
2564;SDS011;1292;48.020;7.822;2023-03-13T13:25:47;2.13;;;1.10;;
2564;SDS011;1292;48.020;7.822;2023-03-13T13:28:25;1.10;;;0.80;;
2564;SDS011;1292;48.020;7.822;2023-03-13T13:31:00;1.50;;;0.90;;
2564;SDS011;1292;48.020;7.822;2023-03-13T13:33:47;3.13;;;0.67;;
2564;SDS011;1292;48.020;7.822;2023-03-13T13:36:29;1.20;;;0.70;;
2564;SDS011;1292;48.020;7.822;2023-03-13T13:39:29;1.50;;;0.87;;
2564;SDS011;1292;48.020;7.822;2023-03-13T13:45:17;1.77;;;0.97;;
2564;SDS011;1292;48.020;7.822;2023-03-13T13:47:51;0.80;;;0.80;;
2564;SDS011;1292;48.020;7.822;2023-03-13T13:53:59;0.97;;;0.70;;
2564;SDS011;1292;48.020;7.822;2023-03-13T13:56:34;0.60;;;0.60;;
2564;SDS011;1292;48.020;7.822;2023-03-13T13:59:23;3.13;;;1.07;;
2564;SDS011;1292;48.020;7.822;2023-03-13T14:04:50;0.87;;;0.80;;
2564;SDS011;1292;48.020;7.822;2023-03-13T14:07:27;1.00;;;0.90;;
2564;SDS011;1292;48.020;7.822;2023-03-13T14:09:58;1.37;;;0.90;;
2564;SDS011;1292;48.020;7.822;2023-03-13T14:12:29;1.13;;;0.93;;
2564;SDS011;1292;48.020;7.822;2023-03-13T14:15:07;2.60;;;1.00;;
2564;SDS011;1292;48.020;7.822;2023-03-13T14:17:37;2.33;;;1.10;;
2564;SDS011;1292;48.020;7.822;2023-03-13T14:20:16;0.80;;;0.80;;
2564;SDS011;1292;48.020;7.822;2023-03-13T14:22:52;1.23;;;1.00;;
2564;SDS011;1292;48.020;7.822;2023-03-13T14:25:20;1.90;;;1.10;;
2564;SDS011;1292;48.020;7.822;2023-03-13T14:27:47;2.80;;;1.00;;
2564;SDS011;1292;48.020;7.822;2023-03-13T14:30:16;1.27;;;0.90;;
2564;SDS011;1292;48.020;7.822;2023-03-13T14:32:44;1.57;;;0.90;;
2564;SDS011;1292;48.020;7.822;2023-03-13T14:35:12;1.00;;;0.90;;
2564;SDS011;1292;48.020;7.822;2023-03-13T14:37:43;1.33;;;1.10;;
2564;SDS011;1292;48.020;7.822;2023-03-13T14:40:18;1.40;;;1.30;;
2564;SDS011;1292;48.020;7.822;2023-03-13T14:42:48;2.57;;;1.23;;
2564;SDS011;1292;48.020;7.822;2023-03-13T14:45:19;1.40;;;1.00;;
2564;SDS011;1292;48.020;7.822;2023-03-13T14:47:48;3.87;;;1.10;;
2564;SDS011;1292;48.020;7.822;2023-03-13T14:50:17;4.00;;;1.10;;
2564;SDS011;1292;48.020;7.822;2023-03-13T14:52:48;1.40;;;1.10;;
2564;SDS011;1292;48.020;7.822;2023-03-13T14:55:26;1.80;;;0.93;;
2564;SDS011;1292;48.020;7.822;2023-03-13T14:57:57;2.13;;;1.20;;
2564;SDS011;1292;48.020;7.822;2023-03-13T15:00:29;1.33;;;1.10;;
2564;SDS011;1292;48.020;7.822;2023-03-13T15:03:19;4.40;;;1.47;;
2564;SDS011;1292;48.020;7.822;2023-03-13T15:05:49;1.10;;;1.00;;
2564;SDS011;1292;48.020;7.822;2023-03-13T15:08:28;1.30;;;1.20;;
2564;SDS011;1292;48.020;7.822;2023-03-13T15:10:56;5.53;;;2.17;;
2564;SDS011;1292;48.020;7.822;2023-03-13T15:13:23;1.97;;;0.90;;
2564;SDS011;1292;48.020;7.822;2023-03-13T15:15:53;1.40;;;1.30;;
2564;SDS011;1292;48.020;7.822;2023-03-13T15:18:21;2.50;;;1.13;;
2564;SDS011;1292;48.020;7.822;2023-03-13T15:20:49;1.63;;;0.60;;
2564;SDS011;1292;48.020;7.822;2023-03-13T15:23:17;3.63;;;1.03;;
2564;SDS011;1292;48.020;7.822;2023-03-13T15:25:46;1.17;;;0.90;;
2564;SDS011;1292;48.020;7.822;2023-03-13T15:28:14;1.27;;;1.10;;
2564;SDS011;1292;48.020;7.822;2023-03-13T15:30:42;1.70;;;1.23;;
2564;SDS011;1292;48.020;7.822;2023-03-13T15:33:11;2.53;;;1.20;;
2564;SDS011;1292;48.020;7.822;2023-03-13T15:35:39;1.77;;;0.93;;
2564;SDS011;1292;48.020;7.822;2023-03-13T15:38:09;2.20;;;0.60;;
2564;SDS011;1292;48.020;7.822;2023-03-13T15:40:37;0.80;;;0.80;;
2564;SDS011;1292;48.020;7.822;2023-03-13T15:43:06;0.80;;;0.80;;
2564;SDS011;1292;48.020;7.822;2023-03-13T15:45:34;1.00;;;1.00;;
2564;SDS011;1292;48.020;7.822;2023-03-13T15:48:02;1.03;;;0.80;;
2564;SDS011;1292;48.020;7.822;2023-03-13T15:50:39;2.70;;;2.00;;
2564;SDS011;1292;48.020;7.822;2023-03-13T15:53:10;1.23;;;1.10;;
2564;SDS011;1292;48.020;7.822;2023-03-13T15:55:42;1.77;;;1.50;;
2564;SDS011;1292;48.020;7.822;2023-03-13T15:58:11;1.57;;;0.87;;
2564;SDS011;1292;48.020;7.822;2023-03-13T16:00:38;1.67;;;1.30;;
2564;SDS011;1292;48.020;7.822;2023-03-13T16:03:07;2.30;;;1.27;;
2564;SDS011;1292;48.020;7.822;2023-03-13T16:05:38;1.60;;;1.37;;
2564;SDS011;1292;48.020;7.822;2023-03-13T16:08:05;2.63;;;1.50;;
2564;SDS011;1292;48.020;7.822;2023-03-13T16:10:32;0.90;;;0.80;;
2564;SDS011;1292;48.020;7.822;2023-03-13T16:12:59;2.90;;;1.40;;
2564;SDS011;1292;48.020;7.822;2023-03-13T16:15:28;1.43;;;0.80;;
2564;SDS011;1292;48.020;7.822;2023-03-13T16:17:55;2.20;;;1.10;;
2564;SDS011;1292;48.020;7.822;2023-03-13T16:20:22;1.00;;;1.00;;
2564;SDS011;1292;48.020;7.822;2023-03-13T16:22:50;1.93;;;0.63;;
2564;SDS011;1292;48.020;7.822;2023-03-13T16:25:18;0.90;;;0.63;;
2564;SDS011;1292;48.020;7.822;2023-03-13T16:27:45;0.80;;;0.70;;
2564;SDS011;1292;48.020;7.822;2023-03-13T16:30:14;2.17;;;1.83;;
2564;SDS011;1292;48.020;7.822;2023-03-13T16:32:44;3.43;;;2.70;;
2564;SDS011;1292;48.020;7.822;2023-03-13T16:35:11;5.53;;;2.20;;
2564;SDS011;1292;48.020;7.822;2023-03-13T16:37:37;1.30;;;1.20;;
2564;SDS011;1292;48.020;7.822;2023-03-13T16:40:10;1.90;;;0.90;;
2564;SDS011;1292;48.020;7.822;2023-03-13T16:42:40;2.60;;;1.60;;
2564;SDS011;1292;48.020;7.822;2023-03-13T16:45:07;1.47;;;1.37;;
2564;SDS011;1292;48.020;7.822;2023-03-13T16:47:35;2.27;;;1.63;;
2564;SDS011;1292;48.020;7.822;2023-03-13T16:50:08;2.67;;;2.37;;
2564;SDS011;1292;48.020;7.822;2023-03-13T16:52:45;2.73;;;2.53;;
2564;SDS011;1292;48.020;7.822;2023-03-13T16:55:12;2.80;;;2.13;;
2564;SDS011;1292;48.020;7.822;2023-03-13T16:57:39;5.20;;;2.17;;
2564;SDS011;1292;48.020;7.822;2023-03-13T17:00:10;2.77;;;2.57;;
2564;SDS011;1292;48.020;7.822;2023-03-13T17:02:39;2.00;;;1.77;;
2564;SDS011;1292;48.020;7.822;2023-03-13T17:05:08;1.93;;;1.37;;
2564;SDS011;1292;48.020;7.822;2023-03-13T17:07:35;2.07;;;1.23;;
2564;SDS011;1292;48.020;7.822;2023-03-13T17:10:05;1.40;;;1.30;;
2564;SDS011;1292;48.020;7.822;2023-03-13T17:12:40;2.33;;;1.70;;
2564;SDS011;1292;48.020;7.822;2023-03-13T17:15:08;2.07;;;1.63;;
2564;SDS011;1292;48.020;7.822;2023-03-13T17:17:35;2.53;;;2.17;;
2564;SDS011;1292;48.020;7.822;2023-03-13T17:20:03;2.23;;;1.53;;
2564;SDS011;1292;48.020;7.822;2023-03-13T17:22:35;2.93;;;2.33;;
2564;SDS011;1292;48.020;7.822;2023-03-13T17:25:01;3.70;;;2.70;;
2564;SDS011;1292;48.020;7.822;2023-03-13T17:27:29;5.87;;;3.40;;
2564;SDS011;1292;48.020;7.822;2023-03-13T17:29:56;5.03;;;3.23;;
2564;SDS011;1292;48.020;7.822;2023-03-13T17:32:23;4.33;;;3.40;;
2564;SDS011;1292;48.020;7.822;2023-03-13T17:34:50;2.40;;;2.20;;
2564;SDS011;1292;48.020;7.822;2023-03-13T17:37:18;3.80;;;2.30;;
2564;SDS011;1292;48.020;7.822;2023-03-13T17:39:48;1.90;;;1.40;;
2564;SDS011;1292;48.020;7.822;2023-03-13T17:42:15;4.70;;;1.60;;
2564;SDS011;1292;48.020;7.822;2023-03-13T17:44:43;1.20;;;1.03;;
2564;SDS011;1292;48.020;7.822;2023-03-13T17:47:11;5.53;;;1.60;;
2564;SDS011;1292;48.020;7.822;2023-03-13T17:49:39;1.10;;;1.00;;
2564;SDS011;1292;48.020;7.822;2023-03-13T17:52:07;1.20;;;1.10;;
2564;SDS011;1292;48.020;7.822;2023-03-13T17:54:39;1.10;;;1.00;;
2564;SDS011;1292;48.020;7.822;2023-03-13T17:57:09;3.40;;;2.53;;
2564;SDS011;1292;48.020;7.822;2023-03-13T17:59:39;1.30;;;1.00;;
2564;SDS011;1292;48.020;7.822;2023-03-13T18:02:07;0.83;;;0.80;;
2564;SDS011;1292;48.020;7.822;2023-03-13T18:04:37;1.20;;;1.10;;
2564;SDS011;1292;48.020;7.822;2023-03-13T18:07:07;1.33;;;0.70;;
2564;SDS011;1292;48.020;7.822;2023-03-13T18:09:41;0.90;;;0.90;;
2564;SDS011;1292;48.020;7.822;2023-03-13T18:12:13;2.80;;;1.60;;
2564;SDS011;1292;48.020;7.822;2023-03-13T18:14:40;2.23;;;1.47;;
2564;SDS011;1292;48.020;7.822;2023-03-13T18:17:12;3.50;;;2.20;;
2564;SDS011;1292;48.020;7.822;2023-03-13T18:19:40;2.37;;;1.60;;
2564;SDS011;1292;48.020;7.822;2023-03-13T18:22:11;1.47;;;1.37;;
2564;SDS011;1292;48.020;7.822;2023-03-13T18:24:39;1.27;;;1.17;;
2564;SDS011;1292;48.020;7.822;2023-03-13T18:27:09;5.60;;;1.67;;
2564;SDS011;1292;48.020;7.822;2023-03-13T18:29:38;4.60;;;1.30;;
2564;SDS011;1292;48.020;7.822;2023-03-13T18:32:06;1.63;;;0.80;;
2564;SDS011;1292;48.020;7.822;2023-03-13T18:34:33;1.63;;;1.53;;
2564;SDS011;1292;48.020;7.822;2023-03-13T18:37:00;1.93;;;1.77;;
2564;SDS011;1292;48.020;7.822;2023-03-13T18:39:29;2.10;;;1.87;;
2564;SDS011;1292;48.020;7.822;2023-03-13T18:41:57;3.50;;;3.20;;
2564;SDS011;1292;48.020;7.822;2023-03-13T18:44:25;3.20;;;2.47;;
2564;SDS011;1292;48.020;7.822;2023-03-13T18:46:53;1.77;;;1.50;;
2564;SDS011;1292;48.020;7.822;2023-03-13T18:49:20;1.50;;;1.40;;
2564;SDS011;1292;48.020;7.822;2023-03-13T18:51:49;2.40;;;1.40;;
2564;SDS011;1292;48.020;7.822;2023-03-13T18:54:17;1.50;;;1.40;;
2564;SDS011;1292;48.020;7.822;2023-03-13T18:56:45;1.47;;;1.37;;
2564;SDS011;1292;48.020;7.822;2023-03-13T18:59:13;2.47;;;2.13;;
2564;SDS011;1292;48.020;7.822;2023-03-13T19:01:43;1.83;;;1.00;;
2564;SDS011;1292;48.020;7.822;2023-03-13T19:04:12;1.57;;;0.90;;
2564;SDS011;1292;48.020;7.822;2023-03-13T19:06:40;4.77;;;2.03;;
2564;SDS011;1292;48.020;7.822;2023-03-13T19:09:11;2.53;;;1.50;;
2564;SDS011;1292;48.020;7.822;2023-03-13T19:11:40;2.60;;;1.37;;
2564;SDS011;1292;48.020;7.822;2023-03-13T19:14:08;6.03;;;1.33;;
2564;SDS011;1292;48.020;7.822;2023-03-13T19:16:35;1.53;;;1.20;;
2564;SDS011;1292;48.020;7.822;2023-03-13T19:19:08;1.60;;;1.50;;
2564;SDS011;1292;48.020;7.822;2023-03-13T19:21:38;1.50;;;1.40;;
2564;SDS011;1292;48.020;7.822;2023-03-13T19:24:06;3.43;;;3.13;;
2564;SDS011;1292;48.020;7.822;2023-03-13T19:26:34;6.43;;;3.10;;
2564;SDS011;1292;48.020;7.822;2023-03-13T19:29:03;3.73;;;2.63;;
2564;SDS011;1292;48.020;7.822;2023-03-13T19:31:35;3.60;;;1.63;;
2564;SDS011;1292;48.020;7.822;2023-03-13T19:34:02;2.30;;;1.30;;
2564;SDS011;1292;48.020;7.822;2023-03-13T19:36:30;2.40;;;1.10;;
2564;SDS011;1292;48.020;7.822;2023-03-13T19:39:01;3.47;;;1.60;;
2564;SDS011;1292;48.020;7.822;2023-03-13T19:41:29;1.23;;;0.60;;
2564;SDS011;1292;48.020;7.822;2023-03-13T19:43:56;0.60;;;0.60;;
2564;SDS011;1292;48.020;7.822;2023-03-13T19:46:23;2.83;;;0.70;;
2564;SDS011;1292;48.020;7.822;2023-03-13T19:48:52;3.47;;;0.50;;
2564;SDS011;1292;48.020;7.822;2023-03-13T19:51:20;4.40;;;0.53;;
2564;SDS011;1292;48.020;7.822;2023-03-13T19:53:47;0.60;;;0.30;;
2564;SDS011;1292;48.020;7.822;2023-03-13T19:56:16;1.20;;;0.80;;
2564;SDS011;1292;48.020;7.822;2023-03-13T19:58:45;1.53;;;1.00;;
2564;SDS011;1292;48.020;7.822;2023-03-13T20:01:13;2.67;;;1.70;;
2564;SDS011;1292;48.020;7.822;2023-03-13T20:03:40;1.40;;;1.27;;
2564;SDS011;1292;48.020;7.822;2023-03-13T20:06:09;1.03;;;0.80;;
2564;SDS011;1292;48.020;7.822;2023-03-13T20:08:40;3.17;;;2.90;;
2564;SDS011;1292;48.020;7.822;2023-03-13T20:11:07;1.90;;;1.63;;
2564;SDS011;1292;48.020;7.822;2023-03-13T20:13:35;1.30;;;1.10;;
2564;SDS011;1292;48.020;7.822;2023-03-13T20:16:02;0.67;;;0.63;;
2564;SDS011;1292;48.020;7.822;2023-03-13T20:18:29;1.90;;;0.87;;
2564;SDS011;1292;48.020;7.822;2023-03-13T20:20:56;2.13;;;1.20;;
2564;SDS011;1292;48.020;7.822;2023-03-13T20:23:23;1.50;;;1.40;;
2564;SDS011;1292;48.020;7.822;2023-03-13T20:25:50;1.90;;;0.80;;
2564;SDS011;1292;48.020;7.822;2023-03-13T20:28:17;2.93;;;0.80;;
2564;SDS011;1292;48.020;7.822;2023-03-13T20:30:45;0.97;;;0.57;;
2564;SDS011;1292;48.020;7.822;2023-03-13T20:33:16;0.80;;;0.60;;
2564;SDS011;1292;48.020;7.822;2023-03-13T20:35:42;1.80;;;0.60;;
2564;SDS011;1292;48.020;7.822;2023-03-13T20:38:09;0.70;;;0.70;;
2564;SDS011;1292;48.020;7.822;2023-03-13T20:40:36;1.50;;;1.13;;
2564;SDS011;1292;48.020;7.822;2023-03-13T20:43:03;3.70;;;1.20;;
2564;SDS011;1292;48.020;7.822;2023-03-13T20:45:30;3.53;;;1.00;;
2564;SDS011;1292;48.020;7.822;2023-03-13T20:47:59;0.80;;;0.70;;
2564;SDS011;1292;48.020;7.822;2023-03-13T20:50:25;2.77;;;2.20;;
2564;SDS011;1292;48.020;7.822;2023-03-13T20:52:53;5.20;;;3.20;;
2564;SDS011;1292;48.020;7.822;2023-03-13T20:55:20;2.80;;;2.43;;
2564;SDS011;1292;48.020;7.822;2023-03-13T20:57:47;1.70;;;1.53;;
2564;SDS011;1292;48.020;7.822;2023-03-13T21:00:14;5.87;;;2.97;;
2564;SDS011;1292;48.020;7.822;2023-03-13T21:02:42;3.80;;;3.50;;
2564;SDS011;1292;48.020;7.822;2023-03-13T21:05:12;2.20;;;2.00;;
2564;SDS011;1292;48.020;7.822;2023-03-13T21:07:38;1.20;;;0.80;;
2564;SDS011;1292;48.020;7.822;2023-03-13T21:10:06;1.43;;;1.33;;
2564;SDS011;1292;48.020;7.822;2023-03-13T21:12:33;6.70;;;1.50;;
2564;SDS011;1292;48.020;7.822;2023-03-13T21:15:00;2.57;;;0.80;;
2564;SDS011;1292;48.020;7.822;2023-03-13T21:17:27;1.47;;;0.80;;
2564;SDS011;1292;48.020;7.822;2023-03-13T21:19:55;1.50;;;0.83;;
2564;SDS011;1292;48.020;7.822;2023-03-13T21:22:23;2.00;;;1.03;;
2564;SDS011;1292;48.020;7.822;2023-03-13T21:24:52;1.13;;;1.03;;
2564;SDS011;1292;48.020;7.822;2023-03-13T21:27:20;1.30;;;1.20;;
2564;SDS011;1292;48.020;7.822;2023-03-13T21:29:47;0.93;;;0.70;;
2564;SDS011;1292;48.020;7.822;2023-03-13T21:32:15;1.97;;;0.90;;
2564;SDS011;1292;48.020;7.822;2023-03-13T21:34:43;2.47;;;1.50;;
2564;SDS011;1292;48.020;7.822;2023-03-13T21:37:11;1.30;;;1.20;;
2564;SDS011;1292;48.020;7.822;2023-03-13T21:39:40;1.40;;;1.03;;
2564;SDS011;1292;48.020;7.822;2023-03-13T21:42:07;3.97;;;1.40;;
2564;SDS011;1292;48.020;7.822;2023-03-13T21:44:34;1.90;;;1.47;;
2564;SDS011;1292;48.020;7.822;2023-03-13T21:47:01;2.20;;;1.33;;
2564;SDS011;1292;48.020;7.822;2023-03-13T21:49:28;2.13;;;1.37;;
2564;SDS011;1292;48.020;7.822;2023-03-13T21:51:55;1.97;;;1.33;;
2564;SDS011;1292;48.020;7.822;2023-03-13T21:54:22;1.17;;;1.00;;
2564;SDS011;1292;48.020;7.822;2023-03-13T21:56:50;2.40;;;0.93;;
2564;SDS011;1292;48.020;7.822;2023-03-13T21:59:18;0.93;;;0.80;;
